createdAt,value
2023-12-14T00:00:38.041Z,12.60
2023-12-14T00:06:06.837Z,13.23
2023-12-14T00:11:15.653Z,12.10
2023-12-14T00:16:22.035Z,12.67
2023-12-14T00:21:28.421Z,13.90
2023-12-14T00:26:36.824Z,13.47
2023-12-14T00:31:45.359Z,13.50
2023-12-14T00:36:51.345Z,13.27
2023-12-14T00:41:59.965Z,12.57
2023-12-14T00:47:11.342Z,12.23
2023-12-14T00:52:17.595Z,11.37
2023-12-14T00:57:26.418Z,12.52
2023-12-14T01:02:32.770Z,11.10
2023-12-14T01:07:41.853Z,11.23
2023-12-14T01:12:50.105Z,10.75
2023-12-14T01:17:58.119Z,10.90
2023-12-14T01:23:06.680Z,11.02
2023-12-14T01:28:16.363Z,10.80
2023-12-14T01:33:22.149Z,10.70
2023-12-14T01:38:28.490Z,11.70
2023-12-14T01:43:37.108Z,10.50
2023-12-14T01:48:43.685Z,12.40
2023-12-14T01:53:52.677Z,11.30
2023-12-14T01:59:01.151Z,10.57
2023-12-14T02:04:08.491Z,9.82
2023-12-14T02:09:14.612Z,10.40
2023-12-14T02:14:26.884Z,8.85
2023-12-14T02:19:32.702Z,9.77
2023-12-14T02:24:42.134Z,8.40
2023-12-14T02:29:47.829Z,8.50
2023-12-14T02:34:53.749Z,8.40
2023-12-14T02:40:02.541Z,8.43
2023-12-14T02:45:10.067Z,7.35
2023-12-14T02:50:16.312Z,5.73
2023-12-14T02:55:26.439Z,5.15
2023-12-14T03:00:32.421Z,5.57
2023-12-14T03:05:38.716Z,6.07
2023-12-14T03:10:47.164Z,6.68
2023-12-14T03:15:53.777Z,7.23
2023-12-14T03:20:59.391Z,9.05
2023-12-14T03:26:08.524Z,8.83
2023-12-14T03:31:16.162Z,9.10
2023-12-14T03:36:23.930Z,9.00
2023-12-14T03:41:32.287Z,9.23
2023-12-14T03:46:38.306Z,8.50
2023-12-14T03:51:47.547Z,9.23
2023-12-14T03:56:56.196Z,8.57
2023-12-14T04:02:02.995Z,7.50
2023-12-14T04:07:08.858Z,9.20
2023-12-14T04:12:17.130Z,8.82
2023-12-14T04:17:22.839Z,7.70
2023-12-14T04:22:28.849Z,7.85
2023-12-14T04:27:37.701Z,7.90
2023-12-14T04:32:43.497Z,8.03
2023-12-14T04:37:50.450Z,7.38
2023-12-14T04:42:59.263Z,6.57
2023-12-14T04:48:05.710Z,8.20
2023-12-14T04:53:11.502Z,7.22
2023-12-14T04:58:22.604Z,10.43
2023-12-14T05:03:28.471Z,9.85
2023-12-14T05:08:34.332Z,10.17
2023-12-14T05:13:42.860Z,9.13
2023-12-14T05:18:48.857Z,9.13
2023-12-14T05:23:54.986Z,8.27
2023-12-14T05:29:03.307Z,8.23
2023-12-14T05:34:09.213Z,8.43
2023-12-14T05:39:15.393Z,7.70
2023-12-14T05:44:24.105Z,8.05
2023-12-14T05:49:30.202Z,7.07
2023-12-14T05:54:36.150Z,7.95
2023-12-14T05:59:48.507Z,7.83
2023-12-14T06:04:55.205Z,7.55
2023-12-14T06:10:03.739Z,7.90
2023-12-14T06:15:12.891Z,8.53
2023-12-14T06:20:22.567Z,8.25
2023-12-14T06:25:28.343Z,9.53
2023-12-14T06:30:36.687Z,8.65
2023-12-14T06:35:42.718Z,8.43
2023-12-14T06:40:48.654Z,9.00
2023-12-14T06:45:56.970Z,7.85
2023-12-14T06:51:03.291Z,7.63
2023-12-14T06:56:11.021Z,6.53
2023-12-14T07:01:20.810Z,7.85
2023-12-14T07:06:26.733Z,7.70
2023-12-14T07:11:34.196Z,7.68
2023-12-14T07:16:45.949Z,9.13
2023-12-14T07:21:51.696Z,9.98
2023-12-14T07:26:57.450Z,9.60
2023-12-14T07:32:05.921Z,11.00
2023-12-14T07:37:12.681Z,12.70
2023-12-14T07:42:21.312Z,12.00
2023-12-14T07:47:31.940Z,11.70
2023-12-14T07:52:37.928Z,9.98
2023-12-14T07:57:46.531Z,11.27
2023-12-14T08:02:54.790Z,11.25
2023-12-14T08:08:02.241Z,11.77
2023-12-14T08:13:08.155Z,11.70
2023-12-14T08:18:16.958Z,10.98
2023-12-14T08:23:23.119Z,11.73
2023-12-14T08:28:28.963Z,11.48
2023-12-14T08:33:38.194Z,11.47
2023-12-14T08:38:44.228Z,12.50
2023-12-14T08:43:50.067Z,14.00
2023-12-14T08:48:58.542Z,15.00
2023-12-14T08:54:04.055Z,15.32
2023-12-14T08:59:10.524Z,14.07
2023-12-14T09:04:19.091Z,14.20
2023-12-14T09:09:25.488Z,12.77
2023-12-14T09:14:31.061Z,12.87
2023-12-14T09:19:39.630Z,10.98
2023-12-14T09:24:48.809Z,12.20
2023-12-14T09:29:58.354Z,13.13
2023-12-14T09:35:07.990Z,15.07
2023-12-14T09:40:14.435Z,13.93
2023-12-14T09:45:23.029Z,13.50
2023-12-14T09:50:32.149Z,12.80
2023-12-14T09:55:40.113Z,13.63
2023-12-14T10:00:45.806Z,12.85
2023-12-14T10:05:55.027Z,13.37
2023-12-14T10:11:05.607Z,12.25
2023-12-14T10:16:11.627Z,11.70
2023-12-14T10:21:22.491Z,11.13
2023-12-14T10:26:29.006Z,11.93
2023-12-14T10:31:38.958Z,11.47
2023-12-14T10:36:49.702Z,11.13
2023-12-14T10:42:03.785Z,9.80
2023-12-14T10:47:17.136Z,10.25
2023-12-14T10:52:27.067Z,9.80
2023-12-14T10:57:33.839Z,9.50
2023-12-14T11:02:46.314Z,9.35
2023-12-14T11:07:57.103Z,8.50
2023-12-14T11:13:06.822Z,8.75
2023-12-14T11:18:30.684Z,9.25
2023-12-14T11:23:41.534Z,8.17
2023-12-14T11:28:47.499Z,9.25
2023-12-14T11:33:53.311Z,8.57
2023-12-14T11:39:02.189Z,8.30
2023-12-14T11:44:08.493Z,8.23
2023-12-14T11:49:14.038Z,8.53
2023-12-14T11:54:22.222Z,8.00
2023-12-14T11:59:27.777Z,7.97
2023-12-14T12:04:33.518Z,7.50
2023-12-14T12:09:46.822Z,7.47
2023-12-14T12:14:54.234Z,6.23
2023-12-14T12:19:59.901Z,7.57
2023-12-14T12:25:15.481Z,5.83
2023-12-14T12:30:21.666Z,5.15
2023-12-14T12:35:32.095Z,4.78
2023-12-14T12:40:41.167Z,5.57
2023-12-14T12:45:46.988Z,4.40
2023-12-14T12:50:52.520Z,3.17
2023-12-14T12:56:00.990Z,3.10
2023-12-14T13:01:06.717Z,3.47
2023-12-14T13:06:12.399Z,3.57
2023-12-14T13:11:20.578Z,3.70
2023-12-14T13:16:30.982Z,3.60
2023-12-14T13:21:37.677Z,3.70
2023-12-14T13:26:46.101Z,2.30
2023-12-14T13:31:52.769Z,2.70
2023-12-14T13:36:58.346Z,2.47
2023-12-14T13:42:06.890Z,2.57
2023-12-14T13:47:13.031Z,2.78
2023-12-14T13:52:18.529Z,3.05
2023-12-14T13:57:26.666Z,2.70
2023-12-14T14:02:36.028Z,2.88
2023-12-14T14:07:41.859Z,2.80
2023-12-14T14:12:50.337Z,3.03
2023-12-14T14:17:56.977Z,3.05
2023-12-14T14:23:03.179Z,3.20
2023-12-14T14:28:12.380Z,3.00
2023-12-14T14:33:19.352Z,3.20
2023-12-14T14:38:25.053Z,3.50
2023-12-14T14:43:33.348Z,3.50
2023-12-14T14:48:39.314Z,3.50
2023-12-14T14:53:48.535Z,3.25
2023-12-14T14:58:57.044Z,3.30
2023-12-14T15:04:03.159Z,3.28
2023-12-14T15:09:10.594Z,3.30
2023-12-14T15:14:19.211Z,2.93
2023-12-14T15:19:24.787Z,3.53
2023-12-14T15:24:30.214Z,3.57
2023-12-14T15:29:38.279Z,4.35
2023-12-14T15:34:43.674Z,3.38
2023-12-14T15:39:50.265Z,4.37
2023-12-14T15:44:58.793Z,3.53
2023-12-14T15:50:04.576Z,4.20
2023-12-14T15:55:11.360Z,3.75
2023-12-14T16:00:21.666Z,4.28
2023-12-14T16:05:28.266Z,5.50
2023-12-14T16:10:33.913Z,4.05
2023-12-14T16:15:42.248Z,4.13
2023-12-14T16:20:49.069Z,4.22
2023-12-14T16:26:00.184Z,4.22
2023-12-14T16:31:10.821Z,4.17
2023-12-14T16:36:19.467Z,4.10
2023-12-14T16:41:33.917Z,4.43
2023-12-14T16:46:42.921Z,4.85
2023-12-14T16:51:48.458Z,4.88
2023-12-14T16:56:53.945Z,4.90
2023-12-14T17:02:04.519Z,5.22
2023-12-14T17:07:10.279Z,6.03
2023-12-14T17:12:15.854Z,4.60
2023-12-14T17:17:35.586Z,5.55
2023-12-14T17:22:41.511Z,5.77
2023-12-14T17:27:50.815Z,5.97
2023-12-14T17:33:00.709Z,4.93
2023-12-14T17:38:08.207Z,6.15
2023-12-14T17:43:17.405Z,5.88
2023-12-14T17:48:30.881Z,5.50
2023-12-14T17:53:39.417Z,6.05
2023-12-14T17:58:49.072Z,5.87
2023-12-14T18:03:57.463Z,5.25
2023-12-14T18:09:05.478Z,5.63
2023-12-14T18:14:14.668Z,5.63
2023-12-14T18:19:28.646Z,5.40
2023-12-14T18:24:44.792Z,5.40
2023-12-14T18:29:50.771Z,5.65
2023-12-14T18:35:02.475Z,5.82
2023-12-14T18:40:10.569Z,5.80
2023-12-14T18:45:16.734Z,5.70
2023-12-14T18:50:28.597Z,5.77
2023-12-14T18:55:37.581Z,5.55
2023-12-14T19:00:45.921Z,5.85
2023-12-14T19:05:55.110Z,5.53
2023-12-14T19:11:02.174Z,7.03
2023-12-14T19:16:14.168Z,6.90
2023-12-14T19:21:24.942Z,7.43
2023-12-14T19:26:31.989Z,6.78
2023-12-14T19:31:38.453Z,7.30
2023-12-14T19:36:47.050Z,7.28
2023-12-14T19:41:53.016Z,7.57
2023-12-14T19:46:58.976Z,8.13
2023-12-14T19:52:09.397Z,7.95
2023-12-14T19:57:15.143Z,8.83
2023-12-14T20:02:21.106Z,8.32
2023-12-14T20:07:30.555Z,7.97
2023-12-14T20:12:38.005Z,7.82
2023-12-14T20:17:44.970Z,8.57
2023-12-14T20:22:53.778Z,8.47
2023-12-14T20:27:59.856Z,7.30
2023-12-14T20:33:06.641Z,7.37
2023-12-14T20:38:15.383Z,8.93
2023-12-14T20:43:21.221Z,8.40
2023-12-14T20:48:26.893Z,8.07
2023-12-14T20:53:38.473Z,7.80
2023-12-14T20:58:47.194Z,7.27
2023-12-14T21:03:54.189Z,7.40
2023-12-14T21:09:02.810Z,8.38
2023-12-14T21:14:13.382Z,8.20
2023-12-14T21:19:23.304Z,8.15
2023-12-14T21:24:32.173Z,8.40
2023-12-14T21:29:37.924Z,7.70
2023-12-14T21:34:43.956Z,7.95
2023-12-14T21:39:52.160Z,8.13
2023-12-14T21:44:57.794Z,7.97
2023-12-14T21:50:03.824Z,8.20
2023-12-14T21:55:12.562Z,8.85
2023-12-14T22:00:20.752Z,7.47
2023-12-14T22:05:26.534Z,7.70
2023-12-14T22:10:34.638Z,8.70
2023-12-14T22:15:40.228Z,8.17
2023-12-14T22:20:45.834Z,7.63
2023-12-14T22:25:57.442Z,8.43
2023-12-14T22:31:04.425Z,8.10
2023-12-14T22:36:11.089Z,8.40
2023-12-14T22:41:22.158Z,8.57
2023-12-14T22:46:27.966Z,7.28
2023-12-14T22:51:33.584Z,7.93
2023-12-14T22:56:41.796Z,7.73
2023-12-14T23:01:47.865Z,7.85
2023-12-14T23:06:53.524Z,8.50
2023-12-14T23:12:05.136Z,8.32
2023-12-14T23:17:10.789Z,8.30
2023-12-14T23:22:16.252Z,7.83
2023-12-14T23:27:25.579Z,8.00
2023-12-14T23:32:45.814Z,8.00
2023-12-14T23:37:54.355Z,8.05
2023-12-14T23:43:03.085Z,8.60
2023-12-14T23:48:09.216Z,7.90
2023-12-14T23:53:15.025Z,7.97
2023-12-14T23:58:28.937Z,8.30
